sensor_id;sensor_type;location;lat;lon;timestamp;temperature;humidity
53272;DHT22;39160;48.580;7.756;2023-02-23T00:02:59;11.80;99.90
53272;DHT22;39160;48.580;7.756;2023-02-23T00:07:51;11.80;99.90
53272;DHT22;39160;48.580;7.756;2023-02-23T00:12:42;11.70;99.90
53272;DHT22;39160;48.580;7.756;2023-02-23T00:17:34;11.70;99.90
53272;DHT22;39160;48.580;7.756;2023-02-23T00:22:26;11.60;99.90
53272;DHT22;39160;48.580;7.756;2023-02-23T00:27:16;11.60;99.90
53272;DHT22;39160;48.580;7.756;2023-02-23T00:32:10;11.50;99.90
53272;DHT22;39160;48.580;7.756;2023-02-23T00:37:00;11.60;99.90
53272;DHT22;39160;48.580;7.756;2023-02-23T00:41:52;11.50;99.90
53272;DHT22;39160;48.580;7.756;2023-02-23T00:46:44;11.50;99.90
53272;DHT22;39160;48.580;7.756;2023-02-23T00:51:35;11.50;99.90
53272;DHT22;39160;48.580;7.756;2023-02-23T00:56:26;11.50;99.90
53272;DHT22;39160;48.580;7.756;2023-02-23T01:01:18;11.40;99.90
53272;DHT22;39160;48.580;7.756;2023-02-23T01:06:12;11.40;99.90
53272;DHT22;39160;48.580;7.756;2023-02-23T01:11:20;11.40;99.90
53272;DHT22;39160;48.580;7.756;2023-02-23T01:16:14;11.40;99.90
53272;DHT22;39160;48.580;7.756;2023-02-23T01:26:15;11.30;99.90
53272;DHT22;39160;48.580;7.756;2023-02-23T01:31:09;11.30;99.90
53272;DHT22;39160;48.580;7.756;2023-02-23T01:36:00;11.40;99.90
53272;DHT22;39160;48.580;7.756;2023-02-23T01:40:50;11.40;99.90
53272;DHT22;39160;48.580;7.756;2023-02-23T01:45:43;11.30;99.90
53272;DHT22;39160;48.580;7.756;2023-02-23T01:51:01;11.30;99.90
53272;DHT22;39160;48.580;7.756;2023-02-23T01:56:00;11.30;99.90
53272;DHT22;39160;48.580;7.756;2023-02-23T02:00:55;11.30;99.90
53272;DHT22;39160;48.580;7.756;2023-02-23T02:05:47;11.30;99.90
53272;DHT22;39160;48.580;7.756;2023-02-23T02:10:39;11.30;99.90
53272;DHT22;39160;48.580;7.756;2023-02-23T02:15:32;11.30;99.90
53272;DHT22;39160;48.580;7.756;2023-02-23T02:20:50;11.30;99.90
53272;DHT22;39160;48.580;7.756;2023-02-23T02:41:56;11.20;99.90
53272;DHT22;39160;48.580;7.756;2023-02-23T02:46:56;11.30;99.90
53272;DHT22;39160;48.580;7.756;2023-02-23T02:57:01;11.10;99.90
53272;DHT22;39160;48.580;7.756;2023-02-23T03:01:54;11.20;99.90
53272;DHT22;39160;48.580;7.756;2023-02-23T03:07:27;11.10;99.90
53272;DHT22;39160;48.580;7.756;2023-02-23T03:24:09;11.10;99.90
53272;DHT22;39160;48.580;7.756;2023-02-23T03:35:02;11.10;99.90
53272;DHT22;39160;48.580;7.756;2023-02-23T03:40:24;11.10;99.90
53272;DHT22;39160;48.580;7.756;2023-02-23T03:45:34;11.10;99.90
53272;DHT22;39160;48.580;7.756;2023-02-23T03:50:56;11.20;99.90
53272;DHT22;39160;48.580;7.756;2023-02-23T03:56:07;11.20;99.90
53272;DHT22;39160;48.580;7.756;2023-02-23T04:01:18;11.20;99.90
53272;DHT22;39160;48.580;7.756;2023-02-23T04:06:33;11.30;99.90
53272;DHT22;39160;48.580;7.756;2023-02-23T04:11:49;11.10;99.90
53272;DHT22;39160;48.580;7.756;2023-02-23T04:16:59;11.10;99.90
53272;DHT22;39160;48.580;7.756;2023-02-23T04:21:51;11.20;99.90
53272;DHT22;39160;48.580;7.756;2023-02-23T04:26:42;11.10;99.90
53272;DHT22;39160;48.580;7.756;2023-02-23T04:31:33;11.10;99.90
53272;DHT22;39160;48.580;7.756;2023-02-23T04:36:23;11.00;99.90
53272;DHT22;39160;48.580;7.756;2023-02-23T04:41:16;11.10;99.90
53272;DHT22;39160;48.580;7.756;2023-02-23T04:46:07;11.10;99.90
53272;DHT22;39160;48.580;7.756;2023-02-23T04:50:58;11.10;99.90
53272;DHT22;39160;48.580;7.756;2023-02-23T04:55:48;11.20;99.90
53272;DHT22;39160;48.580;7.756;2023-02-23T05:00:40;11.20;99.90
53272;DHT22;39160;48.580;7.756;2023-02-23T05:05:31;11.20;99.90
53272;DHT22;39160;48.580;7.756;2023-02-23T05:10:21;11.30;99.90
53272;DHT22;39160;48.580;7.756;2023-02-23T05:15:12;11.30;99.90
53272;DHT22;39160;48.580;7.756;2023-02-23T05:20:03;11.20;99.90
53272;DHT22;39160;48.580;7.756;2023-02-23T05:24:54;11.20;99.90
53272;DHT22;39160;48.580;7.756;2023-02-23T05:29:45;11.20;99.90
53272;DHT22;39160;48.580;7.756;2023-02-23T05:34:36;11.20;99.90
53272;DHT22;39160;48.580;7.756;2023-02-23T05:39:28;11.20;99.90
53272;DHT22;39160;48.580;7.756;2023-02-23T05:44:19;11.20;99.90
53272;DHT22;39160;48.580;7.756;2023-02-23T05:49:10;11.30;99.90
53272;DHT22;39160;48.580;7.756;2023-02-23T05:54:01;11.30;99.90
53272;DHT22;39160;48.580;7.756;2023-02-23T05:58:54;11.30;99.90
53272;DHT22;39160;48.580;7.756;2023-02-23T06:03:47;11.30;99.90
53272;DHT22;39160;48.580;7.756;2023-02-23T06:08:38;11.40;99.90
53272;DHT22;39160;48.580;7.756;2023-02-23T06:13:30;11.40;99.90
53272;DHT22;39160;48.580;7.756;2023-02-23T06:18:21;11.30;99.90
53272;DHT22;39160;48.580;7.756;2023-02-23T06:23:12;11.30;99.90
53272;DHT22;39160;48.580;7.756;2023-02-23T06:28:03;11.30;99.90
53272;DHT22;39160;48.580;7.756;2023-02-23T06:32:54;11.30;99.90
53272;DHT22;39160;48.580;7.756;2023-02-23T06:37:45;11.40;99.90
53272;DHT22;39160;48.580;7.756;2023-02-23T06:42:35;11.30;99.90
53272;DHT22;39160;48.580;7.756;2023-02-23T06:47:26;11.40;99.90
53272;DHT22;39160;48.580;7.756;2023-02-23T06:52:17;11.30;99.90
53272;DHT22;39160;48.580;7.756;2023-02-23T06:57:08;11.40;99.90
53272;DHT22;39160;48.580;7.756;2023-02-23T07:01:59;11.40;99.90
53272;DHT22;39160;48.580;7.756;2023-02-23T07:06:51;11.50;99.90
53272;DHT22;39160;48.580;7.756;2023-02-23T07:11:42;11.40;99.90
53272;DHT22;39160;48.580;7.756;2023-02-23T07:16:34;11.40;99.90
53272;DHT22;39160;48.580;7.756;2023-02-23T07:21:24;11.40;99.90
53272;DHT22;39160;48.580;7.756;2023-02-23T07:26:16;11.40;99.90
53272;DHT22;39160;48.580;7.756;2023-02-23T07:31:07;11.40;99.90
53272;DHT22;39160;48.580;7.756;2023-02-23T07:35:58;11.50;99.90
53272;DHT22;39160;48.580;7.756;2023-02-23T07:40:49;11.60;99.90
53272;DHT22;39160;48.580;7.756;2023-02-23T07:45:40;11.70;99.90
53272;DHT22;39160;48.580;7.756;2023-02-23T07:50:31;11.80;99.90
53272;DHT22;39160;48.580;7.756;2023-02-23T07:55:22;11.80;99.90
53272;DHT22;39160;48.580;7.756;2023-02-23T08:00:13;11.80;99.90
53272;DHT22;39160;48.580;7.756;2023-02-23T08:05:04;11.80;99.90
53272;DHT22;39160;48.580;7.756;2023-02-23T08:09:54;11.90;99.90
53272;DHT22;39160;48.580;7.756;2023-02-23T08:14:45;11.90;99.90
53272;DHT22;39160;48.580;7.756;2023-02-23T08:19:36;11.90;99.90
53272;DHT22;39160;48.580;7.756;2023-02-23T08:24:27;12.00;99.90
53272;DHT22;39160;48.580;7.756;2023-02-23T08:29:19;11.90;99.90
53272;DHT22;39160;48.580;7.756;2023-02-23T08:34:12;12.00;99.90
53272;DHT22;39160;48.580;7.756;2023-02-23T08:39:02;11.90;99.90
53272;DHT22;39160;48.580;7.756;2023-02-23T08:43:57;12.00;99.90
53272;DHT22;39160;48.580;7.756;2023-02-23T08:48:48;12.20;99.90
53272;DHT22;39160;48.580;7.756;2023-02-23T08:53:39;12.30;99.90
53272;DHT22;39160;48.580;7.756;2023-02-23T08:58:30;12.40;99.90
53272;DHT22;39160;48.580;7.756;2023-02-23T09:03:21;12.50;99.90
53272;DHT22;39160;48.580;7.756;2023-02-23T09:08:14;12.60;99.90
53272;DHT22;39160;48.580;7.756;2023-02-23T09:13:05;12.50;99.90
53272;DHT22;39160;48.580;7.756;2023-02-23T09:18:00;12.70;99.90
53272;DHT22;39160;48.580;7.756;2023-02-23T09:22:51;12.60;99.90
53272;DHT22;39160;48.580;7.756;2023-02-23T09:27:44;12.60;99.90
53272;DHT22;39160;48.580;7.756;2023-02-23T09:32:34;12.70;99.90
53272;DHT22;39160;48.580;7.756;2023-02-23T09:37:26;12.70;99.90
53272;DHT22;39160;48.580;7.756;2023-02-23T09:53:06;12.70;99.90
53272;DHT22;39160;48.580;7.756;2023-02-23T09:58:20;13.00;99.90
53272;DHT22;39160;48.580;7.756;2023-02-23T10:09:07;12.90;99.90
53272;DHT22;39160;48.580;7.756;2023-02-23T10:14:22;12.90;99.90
53272;DHT22;39160;48.580;7.756;2023-02-23T10:24:18;13.00;99.90
53272;DHT22;39160;48.580;7.756;2023-02-23T10:29:37;13.10;99.90
53272;DHT22;39160;48.580;7.756;2023-02-23T10:34:29;13.20;99.90
53272;DHT22;39160;48.580;7.756;2023-02-23T10:39:21;13.40;99.90
53272;DHT22;39160;48.580;7.756;2023-02-23T10:44:21;13.60;99.90
53272;DHT22;39160;48.580;7.756;2023-02-23T10:49:20;13.80;99.90
53272;DHT22;39160;48.580;7.756;2023-02-23T10:54:38;14.10;99.90
53272;DHT22;39160;48.580;7.756;2023-02-23T10:59:29;14.30;99.90
53272;DHT22;39160;48.580;7.756;2023-02-23T11:04:29;14.20;99.90
53272;DHT22;39160;48.580;7.756;2023-02-23T11:09:24;14.40;99.90
53272;DHT22;39160;48.580;7.756;2023-02-23T11:14:16;14.60;99.90
53272;DHT22;39160;48.580;7.756;2023-02-23T11:19:36;14.80;99.90
53272;DHT22;39160;48.580;7.756;2023-02-23T11:24:31;14.70;99.90
53272;DHT22;39160;48.580;7.756;2023-02-23T11:34:34;14.90;99.90
53272;DHT22;39160;48.580;7.756;2023-02-23T11:39:24;15.00;99.90
53272;DHT22;39160;48.580;7.756;2023-02-23T11:44:22;14.90;99.90
53272;DHT22;39160;48.580;7.756;2023-02-23T11:49:25;14.80;99.90
53272;DHT22;39160;48.580;7.756;2023-02-23T11:54:27;14.70;99.90
53272;DHT22;39160;48.580;7.756;2023-02-23T11:59:31;14.50;99.90
53272;DHT22;39160;48.580;7.756;2023-02-23T12:04:27;14.70;99.90
53272;DHT22;39160;48.580;7.756;2023-02-23T12:09:31;14.90;99.90
53272;DHT22;39160;48.580;7.756;2023-02-23T12:19:44;15.30;99.90
53272;DHT22;39160;48.580;7.756;2023-02-23T12:40:14;15.20;99.90
53272;DHT22;39160;48.580;7.756;2023-02-23T12:45:38;15.20;99.90
53272;DHT22;39160;48.580;7.756;2023-02-23T12:51:13;15.20;99.90
53272;DHT22;39160;48.580;7.756;2023-02-23T13:00:52;15.20;99.90
53272;DHT22;39160;48.580;7.756;2023-02-23T13:11:05;15.60;99.90
53272;DHT22;39160;48.580;7.756;2023-02-23T13:26:07;15.60;99.90
53272;DHT22;39160;48.580;7.756;2023-02-23T13:31:02;15.60;99.90
53272;DHT22;39160;48.580;7.756;2023-02-23T13:35:54;15.50;99.90
53272;DHT22;39160;48.580;7.756;2023-02-23T13:41:50;15.10;99.90
53272;DHT22;39160;48.580;7.756;2023-02-23T13:46:24;15.00;99.90
53272;DHT22;39160;48.580;7.756;2023-02-23T13:51:38;14.90;99.90
53272;DHT22;39160;48.580;7.756;2023-02-23T13:56:41;14.80;99.90
53272;DHT22;39160;48.580;7.756;2023-02-23T14:01:39;14.70;99.90
53272;DHT22;39160;48.580;7.756;2023-02-23T14:06:33;14.60;99.90
53272;DHT22;39160;48.580;7.756;2023-02-23T14:11:38;14.60;99.90
53272;DHT22;39160;48.580;7.756;2023-02-23T14:16:30;14.50;99.90
53272;DHT22;39160;48.580;7.756;2023-02-23T14:21:28;14.40;99.90
53272;DHT22;39160;48.580;7.756;2023-02-23T14:31:19;14.60;99.90
53272;DHT22;39160;48.580;7.756;2023-02-23T14:41:11;14.40;99.90
53272;DHT22;39160;48.580;7.756;2023-02-23T14:46:02;14.40;99.90
53272;DHT22;39160;48.580;7.756;2023-02-23T14:51:13;14.30;99.90
53272;DHT22;39160;48.580;7.756;2023-02-23T14:56:19;14.10;99.90
53272;DHT22;39160;48.580;7.756;2023-02-23T15:01:10;14.10;99.90
53272;DHT22;39160;48.580;7.756;2023-02-23T15:06:01;14.00;99.90
53272;DHT22;39160;48.580;7.756;2023-02-23T15:11:06;14.00;99.90
53272;DHT22;39160;48.580;7.756;2023-02-23T15:21:19;14.10;99.90
53272;DHT22;39160;48.580;7.756;2023-02-23T15:26:39;14.10;99.90
53272;DHT22;39160;48.580;7.756;2023-02-23T15:31:29;14.20;99.90
53272;DHT22;39160;48.580;7.756;2023-02-23T15:36:27;14.30;99.90
53272;DHT22;39160;48.580;7.756;2023-02-23T15:41:25;14.30;99.90
53272;DHT22;39160;48.580;7.756;2023-02-23T15:46:25;14.50;99.90
53272;DHT22;39160;48.580;7.756;2023-02-23T15:51:36;14.30;99.90
53272;DHT22;39160;48.580;7.756;2023-02-23T15:56:29;14.00;99.90
53272;DHT22;39160;48.580;7.756;2023-02-23T16:06:34;13.60;99.90
53272;DHT22;39160;48.580;7.756;2023-02-23T16:11:25;13.60;99.90
53272;DHT22;39160;48.580;7.756;2023-02-23T16:16:20;13.60;99.90
53272;DHT22;39160;48.580;7.756;2023-02-23T16:21:18;13.70;99.90
53272;DHT22;39160;48.580;7.756;2023-02-23T16:31:08;13.40;99.90
53272;DHT22;39160;48.580;7.756;2023-02-23T16:41:04;13.40;99.90
53272;DHT22;39160;48.580;7.756;2023-02-23T16:45:55;13.30;99.90
53272;DHT22;39160;48.580;7.756;2023-02-23T16:50:46;13.30;99.90
53272;DHT22;39160;48.580;7.756;2023-02-23T16:55:41;13.30;99.90
53272;DHT22;39160;48.580;7.756;2023-02-23T17:00:33;13.20;99.90
53272;DHT22;39160;48.580;7.756;2023-02-23T17:05:24;13.20;99.90
53272;DHT22;39160;48.580;7.756;2023-02-23T17:10:23;13.10;99.90
53272;DHT22;39160;48.580;7.756;2023-02-23T17:15:16;13.00;99.90
53272;DHT22;39160;48.580;7.756;2023-02-23T17:20:08;12.90;99.90
53272;DHT22;39160;48.580;7.756;2023-02-23T17:25:05;12.90;99.90
53272;DHT22;39160;48.580;7.756;2023-02-23T17:29:56;12.80;99.90
53272;DHT22;39160;48.580;7.756;2023-02-23T17:34:46;12.80;99.90
53272;DHT22;39160;48.580;7.756;2023-02-23T17:39:39;12.80;99.90
53272;DHT22;39160;48.580;7.756;2023-02-23T17:44:30;12.60;99.90
53272;DHT22;39160;48.580;7.756;2023-02-23T17:49:21;12.50;99.90
53272;DHT22;39160;48.580;7.756;2023-02-23T17:54:11;12.40;99.90
53272;DHT22;39160;48.580;7.756;2023-02-23T17:59:04;12.40;99.90
53272;DHT22;39160;48.580;7.756;2023-02-23T18:03:55;12.40;99.90
53272;DHT22;39160;48.580;7.756;2023-02-23T18:08:47;12.30;99.90
53272;DHT22;39160;48.580;7.756;2023-02-23T18:13:38;12.20;99.90
53272;DHT22;39160;48.580;7.756;2023-02-23T18:18:29;12.20;99.90
53272;DHT22;39160;48.580;7.756;2023-02-23T18:23:20;12.20;99.90
53272;DHT22;39160;48.580;7.756;2023-02-23T18:28:12;12.10;99.90
53272;DHT22;39160;48.580;7.756;2023-02-23T18:33:03;12.10;99.90
53272;DHT22;39160;48.580;7.756;2023-02-23T18:37:54;12.00;99.90
53272;DHT22;39160;48.580;7.756;2023-02-23T18:42:45;12.00;99.90
53272;DHT22;39160;48.580;7.756;2023-02-23T18:47:37;11.90;99.90
53272;DHT22;39160;48.580;7.756;2023-02-23T18:52:28;11.70;99.90
53272;DHT22;39160;48.580;7.756;2023-02-23T18:57:18;11.70;99.90
53272;DHT22;39160;48.580;7.756;2023-02-23T19:02:09;11.60;99.90
53272;DHT22;39160;48.580;7.756;2023-02-23T19:07:00;11.60;99.90
53272;DHT22;39160;48.580;7.756;2023-02-23T19:11:50;11.70;99.90
53272;DHT22;39160;48.580;7.756;2023-02-23T19:16:43;11.70;99.90
53272;DHT22;39160;48.580;7.756;2023-02-23T19:21:34;11.80;99.90
53272;DHT22;39160;48.580;7.756;2023-02-23T19:26:26;11.80;99.90
53272;DHT22;39160;48.580;7.756;2023-02-23T19:31:19;11.90;99.90
53272;DHT22;39160;48.580;7.756;2023-02-23T19:36:13;11.80;99.90
53272;DHT22;39160;48.580;7.756;2023-02-23T19:41:05;11.90;99.90
53272;DHT22;39160;48.580;7.756;2023-02-23T19:46:05;12.00;99.90
53272;DHT22;39160;48.580;7.756;2023-02-23T19:50:55;12.00;99.90
53272;DHT22;39160;48.580;7.756;2023-02-23T19:55:46;11.90;99.90
53272;DHT22;39160;48.580;7.756;2023-02-23T20:00:38;11.80;99.90
53272;DHT22;39160;48.580;7.756;2023-02-23T20:05:29;11.90;99.90
53272;DHT22;39160;48.580;7.756;2023-02-23T20:10:20;12.00;99.90
53272;DHT22;39160;48.580;7.756;2023-02-23T20:15:15;12.10;99.90
53272;DHT22;39160;48.580;7.756;2023-02-23T20:20:06;12.10;99.90
53272;DHT22;39160;48.580;7.756;2023-02-23T20:24:59;12.00;99.90
53272;DHT22;39160;48.580;7.756;2023-02-23T20:29:50;12.10;99.90
53272;DHT22;39160;48.580;7.756;2023-02-23T20:34:42;12.10;99.90
53272;DHT22;39160;48.580;7.756;2023-02-23T20:39:35;12.00;99.90
53272;DHT22;39160;48.580;7.756;2023-02-23T20:44:25;12.00;99.90
53272;DHT22;39160;48.580;7.756;2023-02-23T20:49:18;12.10;99.90
53272;DHT22;39160;48.580;7.756;2023-02-23T20:54:10;12.10;99.90
53272;DHT22;39160;48.580;7.756;2023-02-23T20:59:03;12.20;99.90
53272;DHT22;39160;48.580;7.756;2023-02-23T21:03:55;12.10;99.90
53272;DHT22;39160;48.580;7.756;2023-02-23T21:08:46;12.10;99.90
53272;DHT22;39160;48.580;7.756;2023-02-23T21:13:40;12.10;99.90
53272;DHT22;39160;48.580;7.756;2023-02-23T21:18:31;12.20;99.90
53272;DHT22;39160;48.580;7.756;2023-02-23T21:23:22;12.10;99.90
53272;DHT22;39160;48.580;7.756;2023-02-23T21:28:14;12.10;99.90
53272;DHT22;39160;48.580;7.756;2023-02-23T21:33:04;12.10;99.90
53272;DHT22;39160;48.580;7.756;2023-02-23T21:37:55;12.10;99.90
53272;DHT22;39160;48.580;7.756;2023-02-23T21:42:47;12.10;99.90
53272;DHT22;39160;48.580;7.756;2023-02-23T21:47:40;12.10;99.90
53272;DHT22;39160;48.580;7.756;2023-02-23T21:52:31;12.10;99.90
53272;DHT22;39160;48.580;7.756;2023-02-23T21:57:22;11.90;99.90
53272;DHT22;39160;48.580;7.756;2023-02-23T22:02:15;11.90;99.90
53272;DHT22;39160;48.580;7.756;2023-02-23T22:07:07;11.90;99.90
53272;DHT22;39160;48.580;7.756;2023-02-23T22:11:58;11.90;99.90
53272;DHT22;39160;48.580;7.756;2023-02-23T22:16:48;11.90;99.90
53272;DHT22;39160;48.580;7.756;2023-02-23T22:21:40;11.90;99.90
53272;DHT22;39160;48.580;7.756;2023-02-23T22:26:35;11.90;99.90
53272;DHT22;39160;48.580;7.756;2023-02-23T22:31:26;11.90;99.90
53272;DHT22;39160;48.580;7.756;2023-02-23T22:36:18;11.80;99.90
53272;DHT22;39160;48.580;7.756;2023-02-23T22:41:09;11.80;99.90
53272;DHT22;39160;48.580;7.756;2023-02-23T22:46:00;11.80;99.90
53272;DHT22;39160;48.580;7.756;2023-02-23T22:50:50;11.80;99.90
53272;DHT22;39160;48.580;7.756;2023-02-23T22:55:51;11.70;99.90
53272;DHT22;39160;48.580;7.756;2023-02-23T23:00:43;11.60;99.90
53272;DHT22;39160;48.580;7.756;2023-02-23T23:05:53;11.60;99.90
53272;DHT22;39160;48.580;7.756;2023-02-23T23:10:45;11.60;99.90
53272;DHT22;39160;48.580;7.756;2023-02-23T23:15:41;11.60;99.90
53272;DHT22;39160;48.580;7.756;2023-02-23T23:20:31;11.50;99.90
53272;DHT22;39160;48.580;7.756;2023-02-23T23:25:22;11.40;99.90
53272;DHT22;39160;48.580;7.756;2023-02-23T23:30:13;11.40;99.90
53272;DHT22;39160;48.580;7.756;2023-02-23T23:35:05;11.40;99.90
53272;DHT22;39160;48.580;7.756;2023-02-23T23:40:00;11.40;99.90
53272;DHT22;39160;48.580;7.756;2023-02-23T23:44:54;11.50;99.90
53272;DHT22;39160;48.580;7.756;2023-02-23T23:49:46;11.30;99.90
53272;DHT22;39160;48.580;7.756;2023-02-23T23:54:37;11.30;99.90
53272;DHT22;39160;48.580;7.756;2023-02-23T23:59:33;11.30;99.90
